createdAt,value
2023-01-27T00:00:53.742Z,101463.31
2023-01-27T00:03:20.576Z,101466.00
2023-01-27T00:05:47.675Z,101467.66
2023-01-27T00:08:14.889Z,101464.28
2023-01-27T00:10:43.521Z,101466.00
2023-01-27T00:13:31.947Z,101465.97
2023-01-27T00:15:58.408Z,101465.06
2023-01-27T00:18:25.726Z,101469.47
2023-01-27T00:21:11.338Z,101463.47
2023-01-27T00:23:56.622Z,101467.00
2023-01-27T00:26:23.307Z,101470.50
2023-01-27T00:28:49.817Z,101464.50
2023-01-27T00:31:36.115Z,101473.25
2023-01-27T00:34:08.978Z,101476.75
2023-01-27T00:36:37.877Z,101475.03
2023-01-27T00:39:05.907Z,101477.63
2023-01-27T00:41:34.045Z,101475.78
2023-01-27T00:44:01.444Z,101479.38
2023-01-27T00:46:28.149Z,101486.28
2023-01-27T00:48:55.340Z,101487.16
2023-01-27T00:51:21.963Z,101479.44
2023-01-27T00:53:48.783Z,101492.53
2023-01-27T00:56:15.722Z,101492.53
2023-01-27T00:58:42.453Z,101493.44
2023-01-27T01:01:11.774Z,101495.16
2023-01-27T01:03:38.302Z,101496.88
2023-01-27T01:06:07.951Z,101500.28
2023-01-27T01:08:36.059Z,101500.28
2023-01-27T01:11:03.142Z,101500.28
2023-01-27T01:13:29.996Z,101504.56
2023-01-27T01:15:57.263Z,101499.34
2023-01-27T01:18:24.286Z,101500.22
2023-01-27T01:20:50.762Z,101499.41
2023-01-27T01:23:17.550Z,101502.88
2023-01-27T01:25:53.807Z,101497.66
2023-01-27T01:28:20.446Z,101496.88
2023-01-27T01:30:47.132Z,101500.31
2023-01-27T01:33:14.067Z,101495.13
2023-01-27T01:35:40.811Z,101494.28
2023-01-27T01:38:07.250Z,101499.47
2023-01-27T01:40:34.222Z,101506.38
2023-01-27T01:43:06.992Z,101505.53
2023-01-27T01:45:36.809Z,101502.13
2023-01-27T01:48:16.824Z,101504.72
2023-01-27T01:50:48.439Z,101511.56
2023-01-27T01:53:15.217Z,101504.59
2023-01-27T01:55:42.225Z,101501.97
2023-01-27T01:58:11.847Z,101507.22
2023-01-27T02:00:38.475Z,101506.38
2023-01-27T02:03:05.034Z,101513.25
2023-01-27T02:05:36.256Z,101510.69
2023-01-27T02:08:21.248Z,101518.63
2023-01-27T02:10:48.041Z,101517.72
2023-01-27T02:13:14.480Z,101524.63
2023-01-27T02:15:41.155Z,101528.06
2023-01-27T02:18:07.801Z,101521.13
2023-01-27T02:20:46.288Z,101527.16
2023-01-27T02:23:21.372Z,101526.22
2023-01-27T02:26:00.544Z,101521.00
2023-01-27T02:28:29.814Z,101527.88
2023-01-27T02:30:57.278Z,101534.75
2023-01-27T02:33:24.328Z,101542.44
2023-01-27T02:35:50.763Z,101538.91
2023-01-27T02:38:19.580Z,101542.28
2023-01-27T02:40:50.271Z,101546.56
2023-01-27T02:43:16.685Z,101537.91
2023-01-27T02:45:45.664Z,101533.59
2023-01-27T02:48:12.070Z,101544.00
2023-01-27T02:50:38.553Z,101551.69
2023-01-27T02:53:05.503Z,101547.28
2023-01-27T02:55:31.926Z,101543.88
2023-01-27T02:57:58.541Z,101543.88
2023-01-27T03:00:25.088Z,101540.34
2023-01-27T03:02:51.501Z,101548.09
2023-01-27T03:05:17.894Z,101543.75
2023-01-27T03:07:44.353Z,101550.59
2023-01-27T03:10:11.113Z,101551.38
2023-01-27T03:12:37.715Z,101546.28
2023-01-27T03:15:22.982Z,101552.22
2023-01-27T03:18:07.686Z,101555.66
2023-01-27T03:20:34.145Z,101547.00
2023-01-27T03:23:00.726Z,101535.75
2023-01-27T03:25:27.180Z,101540.88
2023-01-27T03:27:53.605Z,101533.09
2023-01-27T03:30:20.222Z,101548.47
2023-01-27T03:32:46.833Z,101547.59
2023-01-27T03:35:17.312Z,101546.72
2023-01-27T03:38:02.870Z,101544.97
2023-01-27T03:40:48.188Z,101549.25
2023-01-27T03:43:32.954Z,101541.47
2023-01-27T03:46:20.479Z,101553.59
2023-01-27T03:48:55.301Z,101555.34
2023-01-27T03:51:24.534Z,101550.22
2023-01-27T03:53:50.984Z,101552.75
2023-01-27T03:56:19.607Z,101544.88
2023-01-27T03:58:48.532Z,101544.81
2023-01-27T04:01:20.688Z,101551.72
2023-01-27T04:04:06.865Z,101552.56
2023-01-27T04:06:55.231Z,101550.03
2023-01-27T04:09:33.957Z,101557.84
2023-01-27T04:12:04.420Z,101555.38
2023-01-27T04:14:38.917Z,101557.22
2023-01-27T04:17:10.872Z,101556.41
2023-01-27T04:19:37.627Z,101559.84
2023-01-27T04:22:05.704Z,101557.28
2023-01-27T04:24:33.061Z,101563.34
2023-01-27T04:27:04.802Z,101565.13
2023-01-27T04:29:36.220Z,101564.22
2023-01-27T04:32:04.419Z,101564.22
2023-01-27T04:34:30.946Z,101562.44
2023-01-27T04:36:58.039Z,101556.41
2023-01-27T04:39:25.454Z,101566.69
2023-01-27T04:41:51.966Z,101562.28
2023-01-27T04:44:21.737Z,101567.44
2023-01-27T04:46:48.984Z,101570.03
2023-01-27T04:49:15.699Z,101569.22
2023-01-27T04:51:42.412Z,101569.28
2023-01-27T04:54:09.151Z,101574.44
2023-01-27T04:56:42.395Z,101575.31
2023-01-27T04:59:12.569Z,101574.50
2023-01-27T05:01:39.039Z,101576.19
2023-01-27T05:04:05.596Z,101577.94
2023-01-27T05:06:32.246Z,101570.19
2023-01-27T05:08:58.798Z,101580.56
2023-01-27T05:11:25.361Z,101582.34
2023-01-27T05:13:51.805Z,101586.66
2023-01-27T05:16:23.523Z,101585.88
2023-01-27T05:18:51.663Z,101591.03
2023-01-27T05:21:23.940Z,101590.13
2023-01-27T05:23:50.625Z,101596.22
2023-01-27T05:26:23.072Z,101598.84
2023-01-27T05:28:50.843Z,101591.03
2023-01-27T05:31:21.217Z,101598.00
2023-01-27T05:33:50.864Z,101593.72
2023-01-27T05:36:19.727Z,101596.28
2023-01-27T05:38:46.786Z,101601.47
2023-01-27T05:41:15.084Z,101602.38
2023-01-27T05:43:43.559Z,101604.94
2023-01-27T05:46:13.277Z,101604.16
2023-01-27T05:48:42.575Z,101614.56
2023-01-27T05:51:09.732Z,101611.16
2023-01-27T05:53:36.480Z,101607.69
2023-01-27T05:56:04.145Z,101609.44
2023-01-27T05:58:31.371Z,101611.16
2023-01-27T06:01:09.730Z,101608.59
2023-01-27T06:03:37.002Z,101606.88
2023-01-27T06:06:04.015Z,101617.25
2023-01-27T06:08:31.178Z,101612.13
2023-01-27T06:10:58.865Z,101618.22
2023-01-27T06:13:25.848Z,101614.81
2023-01-27T06:15:52.807Z,101614.84
2023-01-27T06:18:19.567Z,101614.84
2023-01-27T06:20:46.292Z,101612.22
2023-01-27T06:23:14.834Z,101613.97
2023-01-27T06:25:47.677Z,101616.56
2023-01-27T06:28:28.123Z,101616.59
2023-01-27T06:30:56.392Z,101622.66
2023-01-27T06:33:23.216Z,101626.16
2023-01-27T06:35:49.654Z,101630.59
2023-01-27T06:38:16.103Z,101630.59
2023-01-27T06:40:43.244Z,101638.34
2023-01-27T06:43:13.865Z,101631.41
2023-01-27T06:45:40.841Z,101640.06
2023-01-27T06:48:08.576Z,101641.75
2023-01-27T06:50:36.043Z,101646.94
2023-01-27T06:53:05.690Z,101653.84
2023-01-27T06:55:32.404Z,101647.88
2023-01-27T06:57:59.311Z,101649.56
2023-01-27T07:00:25.849Z,101649.56
2023-01-27T07:02:55.709Z,101647.84
2023-01-27T07:05:22.232Z,101653.91
2023-01-27T07:07:48.692Z,101651.41
2023-01-27T07:10:15.910Z,101660.91
2023-01-27T07:12:42.707Z,101655.81
2023-01-27T07:15:10.491Z,101657.63
2023-01-27T07:17:37.453Z,101664.50
2023-01-27T07:20:06.437Z,101657.59
2023-01-27T07:22:32.920Z,101665.38
2023-01-27T07:24:59.507Z,101666.25
2023-01-27T07:27:26.223Z,101658.50
2023-01-27T07:29:52.745Z,101673.16
2023-01-27T07:32:19.218Z,101662.00
2023-01-27T07:34:45.766Z,101674.91
2023-01-27T07:37:13.191Z,101672.31
2023-01-27T07:39:39.726Z,101668.84
2023-01-27T07:42:06.724Z,101673.19
2023-01-27T07:44:33.292Z,101664.59
2023-01-27T07:46:59.940Z,101673.19
2023-01-27T07:49:27.614Z,101663.72
2023-01-27T07:51:54.398Z,101672.31
2023-01-27T07:54:20.945Z,101673.19
2023-01-27T07:56:47.414Z,101683.53
2023-01-27T07:59:14.107Z,101674.91
2023-01-27T08:01:41.788Z,101685.25
2023-01-27T08:04:08.596Z,101695.75
2023-01-27T08:06:35.190Z,101686.28
2023-01-27T08:09:01.773Z,101682.84
2023-01-27T08:11:28.363Z,101687.19
2023-01-27T08:13:54.805Z,101686.34
2023-01-27T08:16:21.332Z,101703.66
2023-01-27T08:18:47.832Z,101701.97
2023-01-27T08:21:14.288Z,101696.00
2023-01-27T08:23:40.771Z,101693.44
2023-01-27T08:26:07.809Z,101695.22
2023-01-27T08:28:37.443Z,101695.22
2023-01-27T08:31:04.806Z,101691.88
2023-01-27T08:33:31.640Z,101685.88
2023-01-27T08:36:06.469Z,101696.28
2023-01-27T08:38:34.440Z,101695.44
2023-01-27T08:41:13.788Z,101688.59
2023-01-27T08:43:40.974Z,101693.88
2023-01-27T08:46:08.615Z,101696.53
2023-01-27T08:48:36.165Z,101701.72
2023-01-27T08:51:03.722Z,101701.72
2023-01-27T08:53:31.204Z,101708.75
2023-01-27T08:56:02.527Z,101701.00
2023-01-27T08:58:29.035Z,101701.88
2023-01-27T09:00:55.487Z,101703.66
2023-01-27T09:03:21.993Z,101705.38
2023-01-27T09:05:48.492Z,101712.31
2023-01-27T09:08:15.936Z,101712.44
2023-01-27T09:10:42.984Z,101712.47
2023-01-27T09:13:09.470Z,101715.06
2023-01-27T09:15:37.201Z,101714.22
2023-01-27T09:18:06.612Z,101720.25
2023-01-27T09:20:34.502Z,101717.84
2023-01-27T09:23:02.389Z,101735.13
2023-01-27T09:25:28.871Z,101732.56
2023-01-27T09:27:56.858Z,101735.19
2023-01-27T09:30:24.496Z,101739.53
2023-01-27T09:32:51.151Z,101733.50
2023-01-27T09:35:18.106Z,101740.47
2023-01-27T09:37:54.170Z,101736.22
2023-01-27T09:40:36.060Z,101739.84
2023-01-27T09:43:36.535Z,101732.97
2023-01-27T09:46:42.131Z,101740.84
2023-01-27T09:49:23.959Z,101740.00
2023-01-27T09:52:17.162Z,101746.13
2023-01-27T09:54:55.740Z,101747.94
2023-01-27T09:57:37.498Z,101747.19
2023-01-27T10:00:32.806Z,101746.41
2023-01-27T10:03:13.366Z,101744.88
2023-01-27T10:05:53.132Z,101752.63
2023-01-27T10:08:37.355Z,101745.72
2023-01-27T10:11:42.367Z,101739.59
2023-01-27T10:14:20.982Z,101743.03
2023-01-27T10:16:51.805Z,101745.75
2023-01-27T10:19:45.658Z,101741.59
2023-01-27T10:22:17.703Z,101745.13
2023-01-27T10:25:14.132Z,101745.28
2023-01-27T10:27:47.345Z,101739.25
2023-01-27T10:30:21.314Z,101739.28
2023-01-27T10:32:57.500Z,101734.22
2023-01-27T10:35:31.836Z,101743.84
2023-01-27T10:38:03.894Z,101743.94
2023-01-27T10:40:58.420Z,101741.41
2023-01-27T10:43:39.171Z,101746.75
2023-01-27T10:46:13.426Z,101734.75
2023-01-27T10:49:05.173Z,101729.50
2023-01-27T10:51:44.010Z,101733.81
2023-01-27T10:54:30.701Z,101731.25
2023-01-27T10:57:04.399Z,101742.63
2023-01-27T11:00:21.975Z,101735.75
2023-01-27T11:03:28.443Z,101718.44
2023-01-27T11:06:02.287Z,101716.75
2023-01-27T11:08:35.896Z,101715.84
2023-01-27T11:11:25.997Z,101718.41
2023-01-27T11:14:02.707Z,101717.63
2023-01-27T11:16:35.457Z,101712.53
2023-01-27T11:19:14.401Z,101704.63
2023-01-27T11:21:41.816Z,101709.78
2023-01-27T11:24:21.865Z,101708.06
2023-01-27T11:27:03.687Z,101694.28
2023-01-27T11:29:42.993Z,101706.50
2023-01-27T11:32:41.866Z,101713.41
2023-01-27T11:35:16.417Z,101715.13
2023-01-27T11:37:45.420Z,101702.22
2023-01-27T11:40:25.477Z,101709.09
2023-01-27T11:42:52.340Z,101718.59
2023-01-27T11:45:21.007Z,101713.47
2023-01-27T11:47:52.810Z,101710.94
2023-01-27T11:50:22.074Z,101710.91
2023-01-27T11:52:55.067Z,101716.06
2023-01-27T11:55:28.300Z,101711.78
2023-01-27T11:58:08.886Z,101713.47
2023-01-27T12:00:44.088Z,101716.09
2023-01-27T12:03:13.599Z,101715.25
2023-01-27T12:05:48.004Z,101724.72
2023-01-27T12:08:36.927Z,101709.19
2023-01-27T12:11:16.550Z,101707.47
2023-01-27T12:14:04.389Z,101700.63
2023-01-27T12:16:39.847Z,101706.78
2023-01-27T12:19:21.806Z,101692.09
2023-01-27T12:21:52.229Z,101692.97
2023-01-27T12:24:30.649Z,101690.28
2023-01-27T12:26:58.503Z,101689.34
2023-01-27T12:29:41.415Z,101691.06
2023-01-27T12:32:23.525Z,101689.31
2023-01-27T12:34:56.534Z,101689.31
2023-01-27T12:37:33.745Z,101694.47
2023-01-27T12:40:03.550Z,101695.34
2023-01-27T12:42:42.519Z,101688.44
2023-01-27T12:45:18.314Z,101687.53
2023-01-27T12:48:10.130Z,101690.88
2023-01-27T12:50:41.972Z,101683.06
2023-01-27T12:53:08.343Z,101682.19
2023-01-27T12:55:52.255Z,101694.28
2023-01-27T12:58:37.456Z,101689.03
2023-01-27T13:01:18.504Z,101696.81
2023-01-27T13:03:45.632Z,101695.88
2023-01-27T13:06:16.625Z,101695.06
2023-01-27T13:08:44.156Z,101695.97
2023-01-27T13:11:11.637Z,101690.88
2023-01-27T13:13:48.808Z,101691.69
2023-01-27T13:16:25.680Z,101694.28
2023-01-27T13:18:58.103Z,101701.19
2023-01-27T13:21:37.794Z,101713.31
2023-01-27T13:24:12.571Z,101713.28
2023-01-27T13:26:41.008Z,101708.94
2023-01-27T13:29:10.411Z,101708.09
2023-01-27T13:31:52.104Z,101707.22
2023-01-27T13:34:29.666Z,101721.88
2023-01-27T13:37:01.068Z,101714.97
2023-01-27T13:40:10.162Z,101717.50
2023-01-27T13:42:44.200Z,101724.47
2023-01-27T13:45:14.407Z,101714.97
2023-01-27T13:47:46.820Z,101729.72
2023-01-27T13:50:29.281Z,101736.66
2023-01-27T13:52:58.976Z,101728.97
2023-01-27T13:55:57.813Z,101730.78
2023-01-27T13:58:44.371Z,101731.69
2023-01-27T14:01:28.483Z,101734.34
2023-01-27T14:04:32.570Z,101737.72
2023-01-27T14:07:21.966Z,101729.88
2023-01-27T14:10:04.167Z,101737.63
2023-01-27T14:13:16.492Z,101734.94
2023-01-27T14:15:52.058Z,101736.63
2023-01-27T14:18:23.781Z,101734.00
2023-01-27T14:21:07.935Z,101740.06
2023-01-27T14:24:05.850Z,101735.69
2023-01-27T14:26:49.765Z,101736.53
2023-01-27T14:29:22.231Z,101740.78
2023-01-27T14:32:14.177Z,101738.19
2023-01-27T14:34:46.728Z,101749.41
2023-01-27T14:37:16.060Z,101745.06
2023-01-27T14:39:59.551Z,101749.34
2023-01-27T14:42:41.969Z,101737.25
2023-01-27T14:45:17.980Z,101740.69
2023-01-27T14:47:57.116Z,101745.00
2023-01-27T14:50:38.197Z,101746.66
2023-01-27T14:53:41.371Z,101750.91
2023-01-27T14:56:26.082Z,101750.03
2023-01-27T14:59:02.742Z,101756.03
2023-01-27T15:01:56.204Z,101759.41
2023-01-27T15:04:34.252Z,101757.63
2023-01-27T15:07:27.599Z,101756.75
2023-01-27T15:10:20.555Z,101758.50
2023-01-27T15:12:48.097Z,101757.59
2023-01-27T15:15:49.935Z,101768.78
2023-01-27T15:18:46.303Z,101773.91
2023-01-27T15:21:30.714Z,101774.75
2023-01-27T15:24:19.542Z,101777.31
2023-01-27T15:26:48.036Z,101782.44
2023-01-27T15:29:15.321Z,101783.28
2023-01-27T15:31:43.079Z,101791.84
2023-01-27T15:34:23.258Z,101793.50
2023-01-27T15:37:02.529Z,101796.97
2023-01-27T15:39:41.046Z,101796.94
2023-01-27T15:42:11.325Z,101798.66
2023-01-27T15:44:58.739Z,101802.06
2023-01-27T15:47:28.587Z,101802.94
2023-01-27T15:50:12.938Z,101795.06
2023-01-27T15:52:48.582Z,101801.97
2023-01-27T15:55:28.932Z,101800.22
2023-01-27T15:58:27.667Z,101808.81
2023-01-27T16:00:57.152Z,101808.75
2023-01-27T16:03:28.274Z,101805.25
2023-01-27T16:06:00.701Z,101816.44
2023-01-27T16:08:32.854Z,101821.56
2023-01-27T16:11:31.771Z,101813.78
2023-01-27T16:14:17.005Z,101822.41
2023-01-27T16:17:03.087Z,101813.75
2023-01-27T16:19:33.386Z,101817.19
2023-01-27T16:22:05.179Z,101818.91
2023-01-27T16:24:41.219Z,101831.00
2023-01-27T16:27:15.739Z,101827.53
2023-01-27T16:29:47.632Z,101832.69
2023-01-27T16:32:20.034Z,101843.91
2023-01-27T16:34:58.644Z,101831.81
2023-01-27T16:37:29.193Z,101844.69
2023-01-27T16:40:02.090Z,101849.88
2023-01-27T16:42:45.780Z,101857.59
2023-01-27T16:45:45.955Z,101852.38
2023-01-27T16:48:29.719Z,101847.16
2023-01-27T16:51:08.755Z,101861.88
2023-01-27T16:53:35.312Z,101856.66
2023-01-27T16:56:05.281Z,101850.59
2023-01-27T16:58:45.589Z,101857.50
2023-01-27T17:01:24.687Z,101849.72
2023-01-27T17:03:55.222Z,101854.78
2023-01-27T17:06:23.052Z,101853.81
2023-01-27T17:08:49.870Z,101859.84
2023-01-27T17:11:36.563Z,101857.03
2023-01-27T17:14:28.521Z,101862.97
2023-01-27T17:16:59.578Z,101862.09
2023-01-27T17:19:32.423Z,101868.16
2023-01-27T17:22:00.463Z,101871.69
2023-01-27T17:24:32.229Z,101874.28
2023-01-27T17:27:03.820Z,101869.97
2023-01-27T17:29:37.977Z,101866.53
2023-01-27T17:32:17.528Z,101870.00
2023-01-27T17:34:44.307Z,101876.03
2023-01-27T17:37:17.339Z,101875.19
2023-01-27T17:39:45.332Z,101873.44
2023-01-27T17:42:17.147Z,101869.09
2023-01-27T17:44:45.085Z,101870.75
2023-01-27T17:47:15.120Z,101884.59
2023-01-27T17:49:42.879Z,101883.69
2023-01-27T17:52:11.818Z,101884.59
2023-01-27T17:54:39.303Z,101876.88
2023-01-27T17:57:23.818Z,101884.66
2023-01-27T18:00:02.606Z,101883.78
2023-01-27T18:02:32.317Z,101889.84
2023-01-27T18:05:06.211Z,101883.78
2023-01-27T18:07:33.143Z,101888.09
2023-01-27T18:09:59.651Z,101883.78
2023-01-27T18:12:32.465Z,101888.06
2023-01-27T18:15:19.361Z,101895.81
2023-01-27T18:17:58.285Z,101897.47
2023-01-27T18:20:33.913Z,101890.53
2023-01-27T18:23:01.587Z,101897.47
2023-01-27T18:25:28.198Z,101897.47
2023-01-27T18:27:55.844Z,101900.91
2023-01-27T18:30:23.763Z,101903.44
2023-01-27T18:33:01.328Z,101904.25
2023-01-27T18:35:32.726Z,101904.25
2023-01-27T18:38:05.259Z,101907.66
2023-01-27T18:40:33.627Z,101899.91
2023-01-27T18:43:00.823Z,101902.38
2023-01-27T18:45:27.557Z,101905.78
2023-01-27T18:47:54.676Z,101913.47
2023-01-27T18:50:23.030Z,101914.13
2023-01-27T18:52:50.519Z,101923.66
2023-01-27T18:55:24.258Z,101918.44
2023-01-27T18:57:52.941Z,101925.38
2023-01-27T19:00:22.491Z,101928.78
2023-01-27T19:02:51.891Z,101926.19
2023-01-27T19:05:20.373Z,101930.47
2023-01-27T19:07:47.221Z,101933.09
2023-01-27T19:10:17.306Z,101933.94
2023-01-27T19:12:43.921Z,101929.63
2023-01-27T19:15:13.520Z,101933.09
2023-01-27T19:17:40.321Z,101931.38
2023-01-27T19:20:18.773Z,101929.66
2023-01-27T19:22:46.161Z,101935.69
2023-01-27T19:25:13.903Z,101930.44
2023-01-27T19:27:43.126Z,101936.50
2023-01-27T19:30:27.674Z,101929.63
2023-01-27T19:32:55.693Z,101927.91
2023-01-27T19:35:24.395Z,101931.38
2023-01-27T19:37:54.140Z,101928.75
2023-01-27T19:40:26.373Z,101933.09
2023-01-27T19:42:53.254Z,101933.09
2023-01-27T19:45:21.465Z,101938.28
2023-01-27T19:47:49.437Z,101937.44
2023-01-27T19:50:15.819Z,101942.63
2023-01-27T19:52:42.263Z,101946.88
2023-01-27T19:55:09.457Z,101952.13
2023-01-27T19:57:36.271Z,101946.94
2023-01-27T20:00:05.220Z,101955.50
2023-01-27T20:02:31.916Z,101952.81
2023-01-27T20:04:58.403Z,101954.53
2023-01-27T20:07:24.937Z,101958.91
2023-01-27T20:09:51.346Z,101961.38
2023-01-27T20:12:17.802Z,101958.78
2023-01-27T20:14:44.317Z,101960.44
2023-01-27T20:17:12.345Z,101963.06
2023-01-27T20:19:38.797Z,101960.44
2023-01-27T20:22:05.202Z,101968.22
2023-01-27T20:24:31.617Z,101975.97
2023-01-27T20:26:58.535Z,101970.81
2023-01-27T20:29:25.063Z,101973.44
2023-01-27T20:31:52.523Z,101974.31
2023-01-27T20:34:19.054Z,101968.22
2023-01-27T20:36:45.459Z,101969.94
2023-01-27T20:39:12.409Z,101972.56
2023-01-27T20:41:38.814Z,101975.88
2023-01-27T20:44:05.326Z,101975.97
2023-01-27T20:46:31.857Z,101970.75
2023-01-27T20:48:59.486Z,101978.56
2023-01-27T20:51:26.043Z,101974.19
2023-01-27T20:53:52.534Z,101973.19
2023-01-27T20:56:23.367Z,101974.91
2023-01-27T20:58:50.093Z,101971.47
2023-01-27T21:01:22.019Z,101982.69
2023-01-27T21:03:48.943Z,101981.81
2023-01-27T21:06:17.680Z,101988.66
2023-01-27T21:08:44.152Z,101991.22
2023-01-27T21:11:12.787Z,101992.97
2023-01-27T21:13:39.393Z,101992.03
2023-01-27T21:16:06.179Z,101988.59
2023-01-27T21:18:32.671Z,101994.69
2023-01-27T21:21:00.753Z,101998.06
2023-01-27T21:23:32.421Z,101996.31
2023-01-27T21:26:09.455Z,101996.31
2023-01-27T21:28:35.964Z,102003.22
2023-01-27T21:31:07.548Z,102002.34
2023-01-27T21:33:36.212Z,101994.59
2023-01-27T21:36:03.949Z,101997.19
2023-01-27T21:38:31.936Z,101994.50
2023-01-27T21:41:10.747Z,101999.69
2023-01-27T21:43:55.890Z,102000.56
2023-01-27T21:46:22.879Z,101991.94
2023-01-27T21:48:49.778Z,101985.97
2023-01-27T21:51:16.327Z,101987.59
2023-01-27T21:53:42.792Z,101991.88
2023-01-27T21:56:10.835Z,101995.34
2023-01-27T21:58:37.596Z,101984.91
2023-01-27T22:01:08.530Z,101995.25
2023-01-27T22:03:36.707Z,101986.63
2023-01-27T22:06:07.629Z,101982.31
2023-01-27T22:08:34.773Z,101979.78
2023-01-27T22:11:06.032Z,101982.31
2023-01-27T22:13:33.343Z,101984.00
2023-01-27T22:16:00.519Z,101989.16
2023-01-27T22:18:27.337Z,101990.00
2023-01-27T22:20:53.960Z,101981.28
2023-01-27T22:23:20.586Z,101981.25
2023-01-27T22:25:51.336Z,101983.88
2023-01-27T22:28:18.299Z,101987.28
2023-01-27T22:30:44.802Z,101982.06
2023-01-27T22:33:12.510Z,101986.38
2023-01-27T22:35:39.542Z,101979.50
2023-01-27T22:38:06.470Z,101987.19
2023-01-27T22:40:33.018Z,101995.88
2023-01-27T22:42:59.468Z,101978.63
2023-01-27T22:45:25.959Z,101985.44
2023-01-27T22:47:52.811Z,101979.34
2023-01-27T22:50:19.447Z,101972.41
2023-01-27T22:52:45.881Z,101977.66
2023-01-27T22:55:13.157Z,101978.41
2023-01-27T22:57:39.880Z,101977.56
2023-01-27T23:00:07.334Z,101980.94
2023-01-27T23:02:36.990Z,101982.75
2023-01-27T23:05:03.650Z,101983.69
2023-01-27T23:07:30.107Z,101988.00
2023-01-27T23:09:56.563Z,101981.81
2023-01-27T23:12:23.040Z,101980.06
2023-01-27T23:14:49.540Z,101990.41
2023-01-27T23:17:16.066Z,101988.66
2023-01-27T23:19:42.500Z,102001.50
2023-01-27T23:22:08.956Z,101997.91
2023-01-27T23:24:35.468Z,101995.25
2023-01-27T23:27:01.956Z,102004.66
2023-01-27T23:29:29.330Z,101998.50
2023-01-27T23:31:56.161Z,102003.66
2023-01-27T23:34:22.817Z,101996.72
2023-01-27T23:36:49.659Z,101999.41
2023-01-27T23:39:16.900Z,102001.06
2023-01-27T23:41:43.451Z,102001.91
2023-01-27T23:44:13.239Z,102001.91
2023-01-27T23:46:40.484Z,101997.59
2023-01-27T23:49:07.884Z,102001.84
2023-01-27T23:51:34.426Z,101992.31
2023-01-27T23:54:02.089Z,101994.81
2023-01-27T23:56:28.896Z,101997.34
2023-01-27T23:58:55.736Z,101990.47
